Airfield :
LOGIN :

Register | Disclaimer

   EN    FR    IT 

 










Legend :    VFR   Marginal VFR   IFR   Intensive IFR   Very Intensive IFR
Visi :
Ceiling :
>= 8 km
>= 3000ft
5 to 8 km
1000 to 3000 ft
1500m to 5 km
500 to 1000 ft
800 to 1500m
200 to 500 ft
< 800m
< 200 ft
Symbols :   Thunderstorms  Fog  Heavy snow  Heavy precipitations  Wind > 20 kt
SIGMETs :     Misc.  Thunderstorms  Icing  Turbulence  Mountain Waves  Volcanic Ashes






- Airport Elevation : 226 ft
- IATA code : BEX


EGUB - RAF Benson

CURRENT METAR :
  • 241050Z AUTO 17002KT 9999 OVC045/// 05/04 Q0994

EXPIRED METARs :
  • 241020Z AUTO 19003KT 9999 FEW045/// 05/03 Q0994
  • 240950Z AUTO 17004KT 9999 NCD 04/03 Q0994
  • 240920Z AUTO 17003KT 9999 NCD 03/02 Q0993
  • 240850Z AUTO 17003KT 9999 NCD 02/02 Q0993
  • 240820Z AUTO 19003KT 9999 NCD 01/01 Q0993
  • 240750Z AUTO 19001KT 9999 NCD M01/M01 Q0993
  • 240720Z AUTO 16004KT 9999 NCD M03/M04 Q0993
  • 240650Z AUTO 15003KT 9999 NCD M04/M05 Q0992
  • 240620Z AUTO 13002KT 9999 NCD M04/M04 Q0992

Expired Forecast.
ATIS : +44 1491-837766 (x7524)



MET'MAP, your aeronautical weather chart ! - Copyright ORBIFLY December 2007 - Disclaimer

ORBIFLY MET'MAP TEAM :

Programming & Development : Alexandra Zaïnal
Original concept : Baudouin d'Aumeries
Technical & hardware support : Manuel Goepfert
Assistance : Marc-Olivier Méhu




SOURCES & CREDITS :

   NOAA